Current Weather

Northolt

Northolt, United Kingdom (EGWU)

Report from: Monday, September 26, 2022 2:50 AM BST
Current time: Monday, September 26, 2022 3:15 AM BST

Nearby weather
Weather history
Weather forecast

Present weatherLight rain
Temperature11.0°C (51.8°F)
Dew point7.0°C (44.6°F)
Winds 9 kts (4.6 m/s, 10.4 mph) Southwest (230°)
Visibility6.2 mi. (10 km)
Clouds Scattered clouds 8,200 ft. (2,499 m)
Ceiling: Broken clouds 10,000 ft. (3,048 m)
Altimeter29.71 in.Hg (1006 mB)
Relative humidity76 %
Density altitude-86 ft. (-26 m)
Remarks Fully automated report
Flight conditions Visual Meteorological Conditions
Raw dataEGWU 260150Z AUTO 23009KT 9999 -RA SCT082/// BKN100/// 11/07 Q1006
An error has occurred. This application may no longer respond until reloaded. Reload 🗙